createdAt,value
2023-09-29T00:01:02.517Z,100694.40
2023-09-29T00:16:16.904Z,100695.92
2023-09-29T00:31:20.406Z,100698.26
2023-09-29T00:46:23.409Z,100697.34
2023-09-29T01:01:26.625Z,100691.43
2023-09-29T01:16:30.017Z,100689.10
2023-09-29T01:31:37.011Z,100679.27
2023-09-29T01:46:40.489Z,100676.36
2023-09-29T02:01:43.164Z,100682.64
2023-09-29T02:16:45.757Z,100673.57
2023-09-29T02:31:48.353Z,100673.92
2023-09-29T02:46:51.403Z,100658.88
2023-09-29T03:01:54.003Z,100659.95
2023-09-29T03:16:56.712Z,100655.63
2023-09-29T03:32:00.691Z,100648.92
2023-09-29T03:47:04.136Z,100651.66
2023-09-29T04:02:06.763Z,100647.23
2023-09-29T04:17:09.364Z,100637.30
2023-09-29T04:32:12.117Z,100634.66
2023-09-29T04:47:14.732Z,100639.84
2023-09-29T05:02:17.331Z,100631.21
2023-09-29T05:17:20.196Z,100634.40
2023-09-29T05:32:23.506Z,100635.93
2023-09-29T05:47:26.159Z,100642.98
2023-09-29T06:02:28.839Z,100644.36
2023-09-29T06:17:32.078Z,100656.09
2023-09-29T06:32:34.945Z,100668.05
2023-09-29T06:47:37.905Z,100670.56
2023-09-29T07:02:41.638Z,100670.27
2023-09-29T07:17:46.031Z,100677.42
2023-09-29T07:32:49.459Z,100674.00
2023-09-29T07:48:05.620Z,100662.61
2023-09-29T08:03:09.372Z,100674.80
2023-09-29T08:18:13.038Z,100674.02
2023-09-29T08:33:25.184Z,100669.37
2023-09-29T08:48:36.731Z,100664.20
2023-09-29T09:03:40.060Z,100657.58
2023-09-29T09:18:43.058Z,100643.88
2023-09-29T09:33:51.278Z,100655.95
2023-09-29T09:49:12.131Z,100647.73
2023-09-29T10:04:15.433Z,100636.42
2023-09-29T10:19:18.400Z,100632.15
2023-09-29T10:34:25.769Z,100625.48
2023-09-29T10:49:32.596Z,100615.30
2023-09-29T11:04:35.550Z,100599.98
2023-09-29T11:19:38.278Z,100596.09
2023-09-29T11:34:40.911Z,100575.50
2023-09-29T11:49:43.556Z,100554.05
2023-09-29T12:04:46.293Z,100543.99
2023-09-29T12:19:49.472Z,100531.10
2023-09-29T12:34:52.132Z,100525.17
2023-09-29T12:49:54.794Z,100513.33
2023-09-29T13:04:57.418Z,100504.61
2023-09-29T13:20:00.117Z,100507.34
2023-09-29T13:35:02.861Z,100503.80
2023-09-29T13:50:06.144Z,100495.77
2023-09-29T14:05:09.373Z,100482.39
2023-09-29T14:20:13.340Z,100480.16
2023-09-29T14:35:16.162Z,100478.90
2023-09-29T14:50:19.294Z,100468.05
2023-09-29T15:05:22.041Z,100466.96
2023-09-29T15:20:25.108Z,100452.42
2023-09-29T15:35:27.706Z,100437.44
2023-09-29T15:50:31.411Z,100447.39
2023-09-29T16:05:34.302Z,100457.83
2023-09-29T16:20:38.340Z,100464.54
2023-09-29T16:35:41.612Z,100468.54
2023-09-29T16:50:46.447Z,100479.30
2023-09-29T17:05:50.550Z,100483.50
2023-09-29T17:20:53.291Z,100490.34
2023-09-29T17:35:55.992Z,100480.34
2023-09-29T17:51:01.497Z,100463.95
2023-09-29T18:06:04.573Z,100467.23
2023-09-29T18:21:07.312Z,100467.66
2023-09-29T18:36:10.146Z,100460.58
2023-09-29T18:51:13.153Z,100465.90
2023-09-29T19:06:15.905Z,100478.30
2023-09-29T19:21:19.921Z,100473.71
2023-09-29T19:36:23.089Z,100467.49
2023-09-29T19:51:26.717Z,100463.22
2023-09-29T20:06:29.558Z,100462.89
2023-09-29T20:21:32.349Z,100466.23
2023-09-29T20:36:36.002Z,100464.50
2023-09-29T20:51:39.647Z,100450.29
2023-09-29T21:06:44.067Z,100448.74
2023-09-29T21:21:46.748Z,100439.08
2023-09-29T21:36:49.405Z,100431.79
2023-09-29T21:51:52.159Z,100445.27
2023-09-29T22:06:54.959Z,100452.75
2023-09-29T22:21:57.580Z,100455.08
2023-09-29T22:37:00.240Z,100463.45
2023-09-29T22:52:03.535Z,100454.88
2023-09-29T23:07:06.787Z,100452.73
2023-09-29T23:22:10.670Z,100464.44
2023-09-29T23:37:13.399Z,100467.91
2023-09-29T23:52:16.113Z,100484.00
